Time;durP1;ratioP1;P1;durP2;ratioP2;P2;SDS_P1;SDS_P2;PMS_P1;PMS_P2;Temp;Humidity;BMP_temperature;BMP_pressure;BME280_temperature;BME280_humidity;BME280_pressure;Samples;Min_cycle;Max_cycle;Signal;HPM_P1;HPM_P2
2022/11/21 00:00:31;;;;;;;9.80;3.58;;;;;;;8.70;63.68;97400.16;4445607;32;20057;-79
2022/11/21 00:03:00;;;;;;;8.75;3.17;;;;;;;8.69;62.98;97392.53;4445688;32;20057;-79
2022/11/21 00:05:28;;;;;;;8.75;3.40;;;;;;;8.40;64.30;97386.97;4445080;32;20120;-79
2022/11/21 00:07:56;;;;;;;10.20;3.62;;;;;;;8.26;65.63;97381.56;4444361;32;20104;-79
2022/11/21 00:10:24;;;;;;;10.18;3.53;;;;;;;9.18;62.58;97385.09;4444188;32;20424;-79
2022/11/21 00:12:55;;;;;;;11.25;3.37;;;;;;;9.38;61.02;97379.84;4444645;32;20160;-79
2022/11/21 00:15:24;;;;;;;9.93;3.53;;;;;;;9.99;58.41;97386.25;4445327;32;20097;-79
2022/11/21 00:17:51;;;;;;;10.52;3.58;;;;;;;10.59;54.83;97371.94;4446089;32;20100;-79
2022/11/21 00:20:20;;;;;;;9.35;3.60;;;;;;;10.49;54.49;97369.94;4446518;32;20119;-79
2022/11/21 00:22:47;;;;;;;9.88;3.50;;;;;;;9.93;55.69;97373.69;4447153;32;20086;-79
2022/11/21 00:25:14;;;;;;;9.68;3.30;;;;;;;9.16;58.39;97367.16;4447752;32;20346;-79
2022/11/21 00:27:41;;;;;;;9.52;3.20;;;;;;;9.84;57.43;97359.53;4447773;32;20077;-78
2022/11/21 00:30:10;;;;;;;8.13;3.12;;;;;;;9.06;60.20;97354.81;4448347;32;20070;-79
2022/11/21 00:32:37;;;;;;;8.68;3.08;;;;;;;9.50;60.55;97357.81;4448360;32;20135;-79
2022/11/21 00:35:05;;;;;;;9.02;3.42;;;;;;;9.23;60.47;97345.34;4448253;32;20093;-79
2022/11/21 00:37:32;;;;;;;8.88;3.22;;;;;;;9.16;60.63;97349.16;4447434;32;20494;-79
2022/11/21 00:39:59;;;;;;;11.10;3.37;;;;;;;9.22;60.04;97350.56;4448810;32;20163;-80
2022/11/21 00:42:26;;;;;;;9.50;3.50;;;;;;;9.33;60.09;97340.59;4448891;32;20093;-79
2022/11/21 00:44:53;;;;;;;7.82;2.75;;;;;;;10.07;56.59;97335.97;4448845;32;20070;-79
2022/11/21 00:47:20;;;;;;;;;;;;;;;10.07;55.46;97338.56;4449308;32;20054;-79
2022/11/21 00:49:47;;;;;;;8.48;2.90;;;;;;;10.14;56.02;97339.06;4448329;32;19959;-79
2022/11/21 00:52:14;;;;;;;;;;;;;;;9.68;57.22;97341.44;4448887;32;20101;-79
2022/11/21 00:54:41;;;;;;;6.43;2.60;;;;;;;9.81;57.17;97344.22;4448358;32;19949;-79
2022/11/21 00:57:08;;;;;;;7.18;2.60;;;;;;;9.57;58.51;97339.41;4448451;32;20905;-79
2022/11/21 00:59:35;;;;;;;8.57;3.08;;;;;;;9.06;60.59;97341.94;4449112;32;20052;-79
2022/11/21 01:02:04;;;;;;;8.05;2.70;;;;;;;9.46;59.80;97338.25;4448590;32;20098;-79
2022/11/21 01:04:32;;;;;;;8.43;2.95;;;;;;;9.35;60.29;97335.38;4447784;32;20093;-79
2022/11/21 01:06:59;;;;;;;7.25;2.67;;;;;;;9.64;59.20;97339.06;4448385;32;20435;-79
2022/11/21 01:09:27;;;;;;;9.85;2.90;;;;;;;10.22;57.49;97336.13;4448308;32;20049;-80
2022/11/21 01:11:55;;;;;;;9.15;2.75;;;;;;;11.04;53.31;97341.13;4448616;32;20093;-79
2022/11/21 01:14:23;;;;;;;8.45;2.70;;;;;;;9.41;57.72;97332.50;4447998;32;20101;-80
2022/11/21 01:16:50;;;;;;;7.62;2.70;;;;;;;8.95;60.09;97334.72;4448217;32;20054;-79
2022/11/21 01:19:18;;;;;;;;;;;;;;;9.80;58.05;97334.84;4446258;32;20077;-79
2022/11/21 01:21:45;;;;;;;7.72;2.65;;;;;;;10.18;56.26;97329.44;4444312;32;20031;-79
2022/11/21 01:24:11;;;;;;;7.75;2.70;;;;;;;9.76;58.38;97339.28;4443724;32;20194;-79
2022/11/21 01:26:39;;;;;;;7.47;2.40;;;;;;;9.64;59.71;97339.91;4444110;32;20086;-80
2022/11/21 01:29:07;;;;;;;7.50;2.83;;;;;;;8.73;62.65;97341.78;4446529;32;20065;-79
2022/11/21 01:31:34;;;;;;;7.90;2.70;;;;;;;9.05;61.80;97333.41;4447036;32;20102;-79
2022/11/21 01:34:01;;;;;;;6.50;2.40;;;;;;;8.78;62.89;97335.53;4448424;32;20089;-79
2022/11/21 01:36:30;;;;;;;7.47;2.72;;;;;;;9.01;61.67;97341.31;4448689;32;20111;-79
2022/11/21 01:38:59;;;;;;;9.25;3.22;;;;;;;8.94;62.04;97344.19;4447976;32;20086;-79
2022/11/21 01:41:32;;;;;;;7.65;3.10;;;;;;;9.39;59.98;97348.03;4448151;32;20454;-79
2022/11/21 01:44:00;;;;;;;7.70;2.72;;;;;;;9.53;59.10;97339.63;4447382;32;20069;-79
2022/11/21 01:46:27;;;;;;;7.68;2.78;;;;;;;8.51;62.51;97326.53;4447389;32;20135;-79
2022/11/21 01:49:17;;;;;;;8.43;2.72;;;;;;;9.11;61.81;97327.94;4447762;32;20084;-79
2022/11/21 01:51:49;;;;;;;8.27;2.90;;;;;;;9.61;59.23;97331.50;4433259;32;20073;-79
2022/11/21 01:54:20;;;;;;;8.40;3.35;;;;;;;9.42;58.65;97337.56;4433534;32;20113;-79
2022/11/21 01:57:05;;;;;;;9.60;3.37;;;;;;;8.89;58.73;97335.84;4432546;32;20093;-79
2022/11/21 01:59:55;;;;;;;10.23;3.67;;;;;;;8.61;59.20;97336.31;4446359;32;20062;-79
2022/11/21 02:02:26;;;;;;;11.02;4.03;;;;;;;7.79;62.70;97340.78;4447503;32;20499;-79
2022/11/21 02:04:54;;;;;;;11.75;4.00;;;;;;;7.29;63.75;97331.78;4420141;32;20101;-79
2022/11/21 02:07:22;;;;;;;11.38;4.47;;;;;;;7.84;62.21;97327.75;4445666;32;20054;-79
2022/11/21 02:09:53;;;;;;;12.07;4.18;;;;;;;7.90;62.09;97334.34;4432940;32;20154;-79
2022/11/21 02:12:30;;;;;;;12.88;4.90;;;;;;;7.76;62.80;97330.66;4446778;32;20160;-79
2022/11/21 02:14:57;;;;;;;;;;;;;;;7.11;64.99;97335.94;4433208;32;20077;-79
2022/11/21 02:17:28;;;;;;;12.82;5.18;;;;;;;7.42;63.75;97326.09;4446316;32;19973;-79
2022/11/21 02:19:58;;;;;;;13.73;5.05;;;;;;;7.08;65.91;97329.19;4446566;32;20581;-78
2022/11/21 02:22:39;;;;;;;14.75;5.07;;;;;;;6.50;68.40;97326.34;4447127;32;20101;-79
2022/11/21 02:25:16;;;;;;;12.95;5.30;;;;;;;5.96;70.63;97332.63;4434354;32;20109;-79
2022/11/21 02:27:44;;;;;;;;;;;;;;;5.36;73.57;97326.13;4449087;32;20145;-79
2022/11/21 02:30:11;;;;;;;12.90;4.93;;;;;;;5.89;72.24;97318.31;4448988;32;19945;-79
2022/11/21 02:32:41;;;;;;;13.45;4.97;;;;;;;5.72;72.51;97318.91;4435619;32;20097;-79
2022/11/21 02:35:08;;;;;;;13.93;5.25;;;;;;;5.73;73.08;97312.88;4449558;32;20089;-79
2022/11/21 02:37:36;;;;;;;14.63;5.07;;;;;;;5.75;73.70;97315.44;4450339;32;20081;-79
2022/11/21 02:40:17;;;;;;;14.55;5.55;;;;;;;6.11;73.34;97303.03;4450078;32;20115;-79
2022/11/21 02:42:50;;;;;;;14.60;5.68;;;;;;;5.97;74.33;97301.00;4436456;32;20101;-79
2022/11/21 02:45:29;;;;;;;14.07;5.62;;;;;;;5.64;76.67;97304.72;4433837;32;20120;-79
2022/11/21 02:47:56;;;;;;;13.60;5.22;;;;;;;5.83;75.92;97295.47;4433353;32;20090;-79
2022/11/21 02:50:31;;;;;;;13.62;5.03;;;;;;;5.95;76.11;97294.25;4434014;32;20069;-79
2022/11/21 02:52:58;;;;;;;13.82;5.35;;;;;;;6.29;74.53;97297.25;4433972;32;20066;-79
2022/11/21 02:55:25;;;;;;;12.70;4.40;;;;;;;6.61;73.10;97293.47;4433191;32;20094;-78
2022/11/21 02:57:53;;;;;;;12.50;4.70;;;;;;;6.80;72.47;97298.69;4433360;32;20143;-79
2022/11/21 03:00:20;;;;;;;13.30;4.70;;;;;;;7.00;71.30;97305.56;4432565;32;20100;-79
2022/11/21 03:02:47;;;;;;;12.80;4.72;;;;;;;6.81;72.04;97305.50;4432451;32;20089;-79
2022/11/21 03:05:16;;;;;;;12.90;4.72;;;;;;;7.13;71.11;97311.91;4432398;32;20062;-79
2022/11/21 03:07:43;;;;;;;13.18;4.65;;;;;;;8.23;65.05;97303.78;4431486;32;20097;-79
2022/11/21 03:10:11;;;;;;;11.12;4.40;;;;;;;8.40;63.49;97304.72;4429971;32;20159;-79
2022/11/21 03:12:39;;;;;;;13.45;5.25;;;;;;;8.03;65.23;97302.09;4429971;32;20157;-79
2022/11/21 03:15:08;;;;;;;11.38;4.82;;;;;;;8.56;62.51;97309.13;4429664;32;20101;-79
2022/11/21 03:17:35;;;;;;;11.98;4.70;;;;;;;9.17;58.27;97309.63;4430177;32;20086;-79
2022/11/21 03:20:03;;;;;;;12.98;4.40;;;;;;;9.01;57.70;97300.97;4430747;32;20179;-79
2022/11/21 03:22:30;;;;;;;14.68;5.35;;;;;;;8.85;57.45;97306.03;4431109;32;20082;-79
2022/11/21 03:24:57;;;;;;;12.73;4.85;;;;;;;8.41;58.08;97300.41;4430909;32;20077;-79
2022/11/21 03:27:24;;;;;;;;;;;;;;;7.89;59.84;97300.12;4433723;32;20057;-79
2022/11/21 03:29:51;;;;;;;11.45;4.45;;;;;;;7.93;59.97;97286.25;4433757;32;20590;-79
2022/11/21 03:32:17;;;;;;;;;;;;;;;8.04;59.02;97294.31;4433378;32;20055;-79
2022/11/21 03:34:44;;;;;;;12.48;4.95;;;;;;;7.53;60.27;97293.09;4434908;32;19957;-79
2022/11/21 03:37:11;;;;;;;11.00;4.10;;;;;;;7.31;61.06;97291.50;4433249;32;20089;-78
2022/11/21 03:39:38;;;;;;;12.70;4.68;;;;;;;7.35;60.45;97290.50;4434051;32;20059;-79
2022/11/21 03:42:05;;;;;;;;;;;;;;;6.92;61.51;97292.25;4434629;32;20097;-79
2022/11/21 03:44:32;;;;;;;12.98;4.82;;;;;;;6.47;63.39;97288.00;4436814;32;19980;-79
2022/11/21 03:46:58;;;;;;;11.48;4.82;;;;;;;5.92;65.25;97287.50;4447661;32;20062;-79
2022/11/21 03:49:25;;;;;;;;;;;;;;;6.02;64.88;97285.44;4447909;32;20081;-79
2022/11/21 03:51:52;;;;;;;12.40;5.00;;;;;;;5.96;65.25;97290.81;4447254;32;19949;-79
2022/11/21 03:54:19;;;;;;;12.23;4.85;;;;;;;5.96;64.21;97278.84;4448151;32;20639;-79
2022/11/21 03:56:45;;;;;;;;;;;;;;;5.63;65.33;97287.69;4448093;32;20439;-79
2022/11/21 03:59:13;;;;;;;10.43;4.00;;;;;;;5.25;67.08;97283.91;4447013;32;19976;-79
2022/11/21 04:01:40;;;;;;;12.07;4.65;;;;;;;4.93;68.35;97276.41;4447613;32;20069;-79
2022/11/21 04:04:07;;;;;;;12.88;4.97;;;;;;;5.14;67.16;97281.69;4446966;32;20576;-79
2022/11/21 04:06:34;;;;;;;11.50;4.80;;;;;;;5.41;67.19;97285.03;4446431;32;20086;-79
2022/11/21 04:09:01;;;;;;;;;;;;;;;5.53;65.87;97282.06;4447545;32;20094;-79
2022/11/21 04:11:28;;;;;;;11.10;4.32;;;;;;;5.34;65.55;97278.47;4446978;32;19977;-79
2022/11/21 04:13:54;;;;;;;;;;;;;;;4.86;67.49;97279.19;4446595;32;20098;-79
2022/11/21 04:16:21;;;;;;;13.90;4.97;;;;;;;4.82;67.76;97280.19;4446575;32;19987;-79
2022/11/21 04:18:48;;;;;;;12.57;5.07;;;;;;;4.10;70.58;97276.44;4445345;32;20081;-79
2022/11/21 04:21:15;;;;;;;12.57;5.07;;;;;;;4.72;68.18;97278.81;4444100;32;20105;-79
2022/11/21 04:23:42;;;;;;;10.95;4.28;;;;;;;5.14;65.78;97272.28;4443764;32;20154;-79
2022/11/21 04:26:09;;;;;;;13.38;4.93;;;;;;;5.37;64.02;97268.97;4443565;32;20078;-78
2022/11/21 04:28:36;;;;;;;;;;;;;;;4.58;67.63;97269.03;4444363;32;20107;-79
2022/11/21 04:31:06;;;;;;;10.45;4.20;;;;;;;4.06;70.15;97265.50;4443442;32;19980;-79
2022/11/21 04:33:37;;;;;;;10.60;4.25;;;;;;;5.21;65.53;97273.78;4442278;32;20085;-79
2022/11/21 04:36:07;;;;;;;11.60;4.75;;;;;;;5.76;61.79;97260.78;4442656;32;20096;-79
2022/11/21 04:38:34;;;;;;;11.50;4.50;;;;;;;5.49;62.20;97265.13;4442321;32;20357;-79
2022/11/21 04:41:01;;;;;;;12.70;4.62;;;;;;;5.02;64.56;97254.81;4442476;32;20093;-79
2022/11/21 04:43:27;;;;;;;;;;;;;;;5.35;63.56;97254.56;4443165;32;20116;-79
2022/11/21 04:45:54;;;;;;;12.15;3.95;;;;;;;5.67;62.48;97254.25;4443083;32;19984;-79
2022/11/21 04:48:21;;;;;;;;;;;;;;;6.14;60.65;97251.69;4442488;32;20090;-79
2022/11/21 04:50:48;;;;;;;10.45;3.90;;;;;;;6.27;59.55;97241.81;4443187;32;19980;-79
2022/11/21 04:53:14;;;;;;;;;;;;;;;6.38;59.04;97249.94;4444444;32;20097;-79
2022/11/21 04:55:41;;;;;;;9.02;2.90;;;;;;;5.84;59.97;97253.62;4444187;32;19949;-79
2022/11/21 04:58:08;;;;;;;;;;;;;;;4.23;66.55;97254.75;4446570;32;20053;-79
2022/11/21 05:00:35;;;;;;;17.42;3.33;;;;;;;3.87;68.65;97261.78;4446621;32;19977;-79
2022/11/21 05:03:03;;;;;;;6.55;2.65;;;;;;;4.18;67.87;97254.91;4445923;32;20097;-79
2022/11/21 05:05:30;;;;;;;10.52;3.35;;;;;;;3.92;69.64;97240.34;4446305;32;20057;-79
2022/11/21 05:07:57;;;;;;;7.78;2.75;;;;;;;4.75;66.42;97248.87;4445638;32;20107;-79
2022/11/21 05:10:24;;;;;;;8.00;2.90;;;;;;;4.50;66.86;97237.75;4419404;32;20070;-79
2022/11/21 05:16:00;;;;;;;7.45;3.17;;;;;;;3.72;71.07;97210.31;4399682;32;20122;-79
2022/11/21 05:18:27;;;;;;;10.73;3.33;;;;;;;2.99;73.67;97174.09;4438273;32;20073;-79
2022/11/21 05:20:54;;;;;;;;;;;;;;;2.93;75.09;97166.63;4446948;32;20144;-79
2022/11/21 05:23:21;;;;;;;20.30;8.70;;;;;;;3.44;72.47;97156.72;4446025;32;19984;-79
2022/11/21 05:25:48;;;;;;;19.83;7.82;;;;;;;3.52;75.14;97166.69;4447039;32;20058;-79
2022/11/21 05:28:14;;;;;;;;;;;;;;;4.52;70.80;97201.06;4446018;32;20407;-79
2022/11/21 05:30:41;;;;;;;8.73;3.03;;;;;;;4.27;68.53;97215.50;4445251;32;19964;-79
2022/11/21 05:33:08;;;;;;;11.60;3.85;;;;;;;3.88;70.47;97222.62;4446146;32;20089;-79
2022/11/21 05:35:37;;;;;;;;;;;;;;;4.59;72.54;97220.44;4447441;32;20108;-79
2022/11/21 05:38:09;;;;;;;12.02;3.45;;;;;;;4.89;71.44;97233.06;4447881;32;20275;-79
2022/11/21 05:40:36;;;;;;;9.63;3.37;;;;;;;4.89;72.23;97233.06;4448481;32;20451;-79
2022/11/21 05:45:49;;;;;;;9.90;3.58;;;;;;;3.93;76.74;97236.06;4448465;32;20072;-79
2022/11/21 05:48:16;;;;;;;10.85;3.95;;;;;;;4.61;74.07;97228.88;4449426;32;20104;-79
2022/11/21 05:50:47;;;;;;;13.00;4.37;;;;;;;4.15;76.33;97226.94;4449077;32;20212;-79
2022/11/21 05:53:14;;;;;;;11.43;3.92;;;;;;;3.29;79.77;97228.50;4436629;32;20112;-79
2022/11/21 05:55:41;;;;;;;12.57;5.20;;;;;;;4.25;77.42;97225.78;4450382;32;20058;-79
2022/11/21 05:58:09;;;;;;;;;;;;;;;3.65;80.34;97223.28;4451326;32;20062;-79
2022/11/21 06:00:37;;;;;;;13.65;5.97;;;;;;;3.56;82.68;97223.53;4452844;32;20083;-80
2022/11/21 06:05:52;;;;;;;12.65;5.90;;;;;;;5.18;78.07;97232.94;4453052;32;20072;-79
2022/11/21 06:08:19;;;;;;;13.32;5.40;;;;;;;5.49;77.76;97230.16;4454433;32;20084;-79
2022/11/21 06:10:47;;;;;;;;;;;;;;;6.43;73.80;97229.25;4455061;32;20070;-79
2022/11/21 06:13:23;;;;;;;10.75;4.15;;;;;;;6.83;71.64;97226.78;4453699;32;19967;-79
2022/11/21 06:15:58;;;;;;;10.38;3.85;;;;;;;7.23;70.09;97227.66;4454548;32;20050;-79
2022/11/21 06:18:26;;;;;;;10.32;3.92;;;;;;;7.19;70.13;97228.72;4453131;32;20054;-78
2022/11/21 06:20:53;;;;;;;10.10;3.80;;;;;;;7.18;69.80;97232.19;4451496;32;20101;-79
2022/11/21 06:23:20;;;;;;;8.90;3.37;;;;;;;7.77;66.86;97239.88;4438683;32;20069;-79
2022/11/21 06:25:55;;;;;;;9.00;3.47;;;;;;;8.15;64.80;97234.72;4452055;32;20065;-79
2022/11/21 06:28:23;;;;;;;9.20;3.30;;;;;;;8.32;63.88;97236.53;4448821;32;20135;-79
2022/11/21 06:30:50;;;;;;;9.15;3.20;;;;;;;7.48;66.85;97241.13;4446845;32;20105;-79
2022/11/21 06:33:17;;;;;;;8.82;3.35;;;;;;;7.63;66.22;97226.78;4447406;32;20062;-79
2022/11/21 06:35:44;;;;;;;9.05;3.35;;;;;;;7.25;68.19;97231.03;4446984;32;20058;-79
2022/11/21 06:38:12;;;;;;;;;;;;;;;6.97;70.47;97236.47;4447421;32;20080;-79
2022/11/21 06:40:39;;;;;;;7.43;3.08;;;;;;;6.85;71.69;97237.81;4447327;32;19977;-79
2022/11/21 06:43:06;;;;;;;11.73;3.33;;;;;;;7.00;71.51;97236.31;4432859;32;20074;-79
2022/11/21 06:45:33;;;;;;;;;;;;;;;6.85;72.35;97240.38;4445984;32;20150;-79
2022/11/21 06:48:01;;;;;;;9.02;3.17;;;;;;;6.85;71.78;97234.41;4445863;32;20510;-80
2022/11/21 06:50:30;;;;;;;8.43;3.30;;;;;;;7.02;70.83;97237.13;4445044;32;20588;-78
2022/11/21 06:52:57;;;;;;;8.70;3.37;;;;;;;6.65;71.81;97253.16;4439296;32;20077;-77
2022/11/21 06:55:26;;;;;;;9.75;3.53;;;;;;;6.31;73.03;97254.47;4444949;32;20102;-78
2022/11/21 06:57:56;;;;;;;11.12;3.90;;;;;;;6.28;72.82;97257.16;4440444;32;20111;-78
2022/11/21 07:00:24;;;;;;;9.55;3.97;;;;;;;6.05;73.32;97270.78;4440660;32;20155;-78
2022/11/21 07:02:51;;;;;;;10.10;3.47;;;;;;;5.89;73.92;97267.13;4441291;32;20117;-78
2022/11/21 07:05:18;;;;;;;;;;;;;;;5.42;74.65;97274.75;4442876;32;20108;-78
2022/11/21 07:07:44;;;;;;;10.90;4.22;;;;;;;5.43;75.56;97275.59;4430174;32;20440;-81
2022/11/21 07:10:11;;;;;;;10.02;4.05;;;;;;;6.13;73.47;97270.53;4445522;32;20081;-79
2022/11/21 07:15:23;;;;;;;11.45;3.90;;;;;;;8.12;65.69;97273.41;4445286;32;19973;-81
2022/11/21 07:17:50;;;;;;;9.80;3.67;;;;;;;9.02;60.34;97281.22;4447711;32;20092;-79
2022/11/21 07:20:18;;;;;;;9.23;3.67;;;;;;;9.94;58.05;97272.28;4448343;32;20109;-79
2022/11/21 07:22:44;;;;;;;8.25;3.10;;;;;;;10.38;54.32;97282.81;4444201;32;20069;-79
2022/11/21 07:25:11;;;;;;;;;;;;;;;9.35;57.49;97286.44;4445169;32;20155;-79
2022/11/21 07:27:38;;;;;;;6.28;2.30;;;;;;;8.15;61.91;97291.25;4440671;32;19991;-81
2022/11/21 07:30:05;;;;;;;;;;;;;;;6.20;70.03;97284.78;4442275;32;20100;-80
2022/11/21 07:32:32;;;;;;;6.78;2.50;;;;;;;5.14;74.61;97289.38;4446439;32;19985;-81
2022/11/21 07:34:58;;;;;;;;;;;;;;;5.57;73.63;97295.59;4443613;32;20090;-83
2022/11/21 07:37:26;;;;;;;5.30;2.00;;;;;;;5.50;73.47;97306.00;4442486;32;19969;-84
2022/11/21 07:39:53;;;;;;;5.78;2.50;;;;;;;5.08;75.55;97307.44;4443993;32;20117;-81
2022/11/21 07:42:19;;;;;;;;;;;;;;;4.94;75.38;97307.91;4446808;32;20120;-78
2022/11/21 07:44:46;;;;;;;7.10;2.40;;;;;;;4.26;79.01;97315.97;4441743;32;19977;-81
2022/11/21 07:47:13;;;;;;;8.02;2.85;;;;;;;3.96;80.97;97315.97;4452154;32;20120;-81
2022/11/21 07:49:48;;;;;;;9.05;2.95;;;;;;;3.97;81.97;97319.34;4451080;32;20077;-80
2022/11/21 07:52:15;;;;;;;9.00;2.85;;;;;;;3.76;82.88;97315.69;4552125;26;20111;-78
2022/11/21 07:54:45;;;;;;;9.65;3.03;;;;;;;3.85;82.66;97296.72;4428636;32;20062;-80
2022/11/21 07:57:12;;;;;;;7.10;2.67;;;;;;;4.23;81.60;97303.28;4453456;32;20074;-81
2022/11/21 07:59:38;;;;;;;;;;;;;;;3.72;85.34;97298.75;4454185;32;20080;-80
2022/11/21 08:02:05;;;;;;;11.18;3.12;;;;;;;4.04;83.01;97290.19;4453497;32;19976;-80
2022/11/21 08:04:32;;;;;;;10.25;3.33;;;;;;;4.41;82.21;97284.84;4443230;32;20172;-81
2022/11/21 08:06:59;;;;;;;;;;;;;;;4.94;80.08;97292.56;4448579;32;20061;-78
2022/11/21 08:09:28;;;;;;;7.68;2.58;;;;;;;4.71;80.89;97277.97;4451925;32;20378;-79
2022/11/21 08:11:56;;;;;;;9.88;3.03;;;;;;;5.31;77.16;97284.50;4453170;32;20117;-79
2022/11/21 08:14:22;;;;;;;7.80;2.85;;;;;;;5.49;78.32;97277.94;4451019;32;20073;-80
2022/11/21 08:16:50;;;;;;;;;;;;;;;6.05;74.86;97281.03;4453231;32;20077;-81
2022/11/21 08:19:18;;;;;;;10.13;3.55;;;;;;;6.01;75.46;97281.22;4453240;32;19990;-80
2022/11/21 08:21:45;;;;;;;9.10;3.12;;;;;;;5.56;76.79;97288.81;4452346;32;20074;-79
2022/11/21 08:24:13;;;;;;;9.63;3.20;;;;;;;6.06;73.66;97277.63;4438507;32;20128;-78
2022/11/21 08:26:40;;;;;;;8.02;3.03;;;;;;;5.78;76.02;97279.47;4446166;32;20058;-80
2022/11/21 08:29:08;;;;;;;9.23;3.60;;;;;;;5.69;76.92;97288.31;4453647;32;20120;-78
2022/11/21 08:31:36;;;;;;;16.15;4.00;;;;;;;6.47;72.68;97298.25;4454140;32;20093;-79
2022/11/21 08:34:03;;;;;;;22.23;4.00;;;;;;;6.21;73.95;97304.38;4451079;32;20118;-79
2022/11/21 08:36:33;;;;;;;13.75;3.70;;;;;;;6.04;75.09;97292.19;4449055;32;20107;-79
2022/11/21 08:39:00;;;;;;;11.57;3.60;;;;;;;5.67;77.13;97302.87;4452684;32;20077;-78
2022/11/21 08:44:13;;;;;;;15.25;3.28;;;;;;;6.51;74.10;97293.88;4454047;32;20090;-77
2022/11/21 08:46:40;;;;;;;;;;;;;;;7.22;70.51;97301.25;4452049;32;20115;-80
2022/11/21 08:49:07;;;;;;;10.65;3.70;;;;;;;6.99;69.43;97295.37;4452827;32;19948;-80
2022/11/21 08:51:34;;;;;;;14.20;4.10;;;;;;;6.72;70.82;97300.72;4439022;32;20077;-79
2022/11/21 08:54:02;;;;;;;20.02;4.30;;;;;;;6.09;75.70;97292.03;4453478;32;20115;-78
2022/11/21 08:56:29;;;;;;;13.50;4.75;;;;;;;6.10;75.95;97288.56;4444977;32;282835;-78
2022/11/21 08:58:56;;;;;;;10.75;3.72;;;;;;;5.99;77.12;97283.84;4454850;32;20086;-78
2022/11/21 09:01:23;;;;;;;9.38;3.60;;;;;;;6.31;76.23;97292.06;4454382;32;20125;-78
2022/11/21 09:03:50;;;;;;;9.93;3.67;;;;;;;6.26;76.82;97281.13;4454558;32;20053;-78
2022/11/21 09:06:17;;;;;;;;;;;;;;;6.67;75.67;97282.13;4453589;32;20096;-80
2022/11/21 09:08:46;;;;;;;8.45;3.30;;;;;;;6.86;73.95;97283.06;4454074;32;19953;-79
2022/11/21 09:11:13;;;;;;;8.82;3.53;;;;;;;6.64;76.30;97290.75;4451712;32;20162;-78
2022/11/21 09:13:40;;;;;;;9.65;3.53;;;;;;;6.35;76.66;97286.75;4454235;32;20107;-77
2022/11/21 09:18:52;;;;;;;9.85;3.40;;;;;;;5.63;81.73;97287.69;4441130;32;20308;-78
2022/11/21 09:21:19;;;;;;;;;;;;;;;5.63;82.41;97293.63;4444747;32;20439;-79
2022/11/21 09:23:46;;;;;;;12.33;3.60;;;;;;;6.08;82.56;97286.06;4439932;32;19985;-78
2022/11/21 09:26:13;;;;;;;10.32;3.95;;;;;;;6.29;81.69;97281.03;4442263;32;20093;-79
2022/11/21 09:28:40;;;;;;;8.95;3.35;;;;;;;6.79;79.42;97281.63;4427498;32;20507;-79
2022/11/21 09:31:07;;;;;;;;;;;;;;;6.83;78.69;97280.63;4426737;32;20113;-79
2022/11/21 09:33:34;;;;;;;8.90;3.12;;;;;;;6.66;78.61;97276.16;4441608;32;20624;-79
2022/11/21 09:36:01;;;;;;;10.35;3.00;;;;;;;6.63;77.82;97268.59;4445232;32;20171;-79
2022/11/21 09:38:31;;;;;;;10.45;3.87;;;;;;;6.51;78.80;97269.06;4448335;32;20159;-79
2022/11/21 09:44:45;;;;;;;10.43;3.70;;;;;;;6.73;77.58;97278.50;4432343;32;20866;-77
2022/11/21 09:47:51;;;;;;;10.77;4.07;;;;;;;7.07;76.67;97277.97;4435796;32;20081;-79
2022/11/21 09:50:37;;;;;;;11.05;3.67;;;;;;;7.57;74.65;97280.97;4381541;32;20133;-79
2022/11/21 09:53:27;;;;;;;10.45;3.37;;;;;;;8.04;72.82;97273.75;4432509;32;20123;-80
2022/11/21 09:55:58;;;;;;;10.52;3.53;;;;;;;8.02;73.09;97270.44;4433689;32;20093;-77
2022/11/21 09:58:39;;;;;;;10.30;3.62;;;;;;;8.52;70.30;97266.47;4439535;32;20095;-78
2022/11/21 10:01:11;;;;;;;9.00;3.55;;;;;;;8.34;71.16;97258.72;4439205;32;20077;-78
2022/11/21 10:03:49;;;;;;;9.40;3.70;;;;;;;8.53;71.68;97260.44;4451249;32;20076;-81
2022/11/21 10:06:25;;;;;;;11.50;4.07;;;;;;;9.09;69.82;97262.84;4435251;32;20065;-81
2022/11/21 10:09:15;;;;;;;9.52;3.70;;;;;;;8.92;71.18;97266.22;4438799;32;20093;-81
2022/11/21 10:15:13;;;;;;;9.98;3.37;;;;;;;9.15;69.99;97269.44;4449871;32;20081;-81
2022/11/21 10:17:44;;;;;;;9.82;3.70;;;;;;;10.23;65.94;97263.03;4449262;32;20448;-80
2022/11/21 10:20:32;;;;;;;9.43;3.47;;;;;;;10.46;65.77;97269.53;4447420;32;20053;-79
2022/11/21 10:23:02;;;;;;;9.45;3.60;;;;;;;10.91;63.94;97271.28;4436977;32;20105;-82
2022/11/21 10:25:37;;;;;;;10.32;3.78;;;;;;;11.56;61.56;97264.09;4440345;32;20097;-80
2022/11/21 10:28:10;;;;;;;9.18;3.47;;;;;;;11.80;59.51;97262.69;4445166;32;20077;-81
2022/11/21 10:30:41;;;;;;;8.85;3.65;;;;;;;11.17;60.96;97257.75;4429880;32;20058;-82
2022/11/21 10:33:15;;;;;;;11.50;4.07;;;;;;;11.26;60.98;97261.53;4434878;32;20089;-81
2022/11/21 10:35:49;;;;;;;10.00;4.05;;;;;;;10.91;63.11;97258.41;4432800;32;20812;-81
2022/11/21 10:38:27;;;;;;;8.95;3.50;;;;;;;9.97;66.22;97254.06;4432039;32;20147;-82
2022/11/21 10:41:09;;;;;;;10.80;4.07;;;;;;;9.13;69.66;97259.19;4430142;32;20155;-80
2022/11/21 10:46:34;;;;;;;10.88;4.47;;;;;;;8.93;70.44;97255.06;4429735;32;20154;-80
2022/11/21 10:49:03;;;;;;;9.32;4.07;;;;;;;8.62;72.56;97257.44;4441331;32;20089;-81
2022/11/21 10:51:39;;;;;;;10.93;3.75;;;;;;;8.34;73.58;97256.16;4440196;32;20173;-80
2022/11/21 10:57:05;;;;;;;10.00;4.07;;;;;;;8.28;75.01;97264.09;4426363;32;20161;-80
2022/11/21 10:59:32;;;;;;;9.20;3.62;;;;;;;8.50;74.72;97257.97;4425406;32;20108;-80
2022/11/21 11:02:00;;;;;;;9.68;3.72;;;;;;;8.07;77.26;97253.06;4425278;32;20142;-80
2022/11/21 11:04:30;;;;;;;10.25;4.40;;;;;;;9.17;73.49;97254.75;4426502;32;20154;-79
2022/11/21 11:07:22;;;;;;;9.80;3.83;;;;;;;8.80;73.46;97251.38;4426903;32;20165;-81
2022/11/21 11:09:51;;;;;;;9.60;4.15;;;;;;;10.14;69.38;97251.44;4430947;32;20106;-80
2022/11/21 11:15:24;;;;;;;10.10;4.03;;;;;;;10.56;66.73;97253.47;4432690;32;20089;-80
2022/11/21 11:17:55;;;;;;;9.50;3.47;;;;;;;10.45;67.32;97242.06;4432443;32;20073;-80
2022/11/21 11:20:37;;;;;;;9.20;3.67;;;;;;;10.92;65.41;97245.41;4425845;32;20061;-80
2022/11/21 11:23:23;;;;;;;10.02;3.83;;;;;;;10.85;65.77;97248.44;4431034;32;20142;-80
2022/11/21 11:25:52;;;;;;;9.05;4.03;;;;;;;10.88;65.34;97243.91;4426306;32;20062;-79
2022/11/21 11:28:20;;;;;;;9.35;3.28;;;;;;;11.53;63.89;97247.00;4430566;32;20097;-82
2022/11/21 11:30:47;;;;;;;9.27;3.75;;;;;;;11.36;64.21;97242.00;4427863;32;20809;-80
2022/11/21 11:33:38;;;;;;;10.32;3.92;;;;;;;10.33;69.36;97238.41;4430678;32;20070;-80
2022/11/21 11:36:43;;;;;;;10.60;4.10;;;;;;;10.76;69.19;97231.72;4433309;32;20437;-80
2022/11/21 11:39:39;;;;;;;11.07;4.20;;;;;;;10.47;69.67;97233.31;4436958;32;20071;-80
2022/11/21 11:48:09;;;;;;;9.90;4.10;;;;;;;10.75;70.29;97208.59;4426572;32;20106;-80
2022/11/21 11:50:49;;;;;;;9.82;4.00;;;;;;;12.13;63.99;97212.41;4429589;32;20408;-81
2022/11/21 11:53:22;;;;;;;10.98;4.10;;;;;;;11.88;63.12;97219.06;4437980;32;20081;-80
2022/11/21 11:55:57;;;;;;;10.45;4.37;;;;;;;11.01;67.19;97213.91;4438471;32;20083;-80
2022/11/21 11:58:32;;;;;;;10.75;4.60;;;;;;;11.21;66.90;97204.19;4436078;32;20105;-81
2022/11/21 12:01:05;;;;;;;10.13;4.12;;;;;;;11.75;64.60;97197.47;4451419;32;20061;-79
2022/11/21 12:03:54;;;;;;;9.10;3.70;;;;;;;12.09;62.35;97192.84;4450174;32;20064;-80
2022/11/21 12:06:25;;;;;;;9.80;4.07;;;;;;;12.42;61.38;97190.69;4446795;32;20115;-80
2022/11/21 12:09:21;;;;;;;;;;;;;;;12.70;59.71;97181.19;4443784;32;20372;-81
2022/11/21 12:12:07;;;;;;;8.82;3.58;;;;;;;12.88;60.10;97185.16;4444035;32;19986;-81
2022/11/21 12:18:19;;;;;;;10.27;4.20;;;;;;;13.14;58.41;97193.78;4436532;32;20133;-80
2022/11/21 12:21:07;;;;;;;9.95;4.18;;;;;;;12.28;62.17;97195.94;4448599;32;20097;-80
2022/11/21 12:23:50;;;;;;;11.32;4.65;;;;;;;11.80;65.32;97199.78;4446727;32;20159;-80
2022/11/21 12:26:19;;;;;;;13.62;5.55;;;;;;;11.95;65.17;97192.88;4444777;32;20497;-80
2022/11/21 12:29:11;;;;;;;11.35;5.25;;;;;;;11.63;66.32;97187.03;4446077;32;20163;-80
2022/11/21 12:31:56;;;;;;;11.12;4.85;;;;;;;11.34;66.02;97181.87;4443732;32;20071;-80
2022/11/21 12:34:42;;;;;;;12.00;4.87;;;;;;;11.58;66.29;97198.47;4449579;32;20065;-79
2022/11/21 12:37:22;;;;;;;14.68;5.93;;;;;;;11.57;66.30;97188.22;4441641;32;20608;-81
2022/11/21 12:40:25;;;;;;;12.70;5.60;;;;;;;11.56;67.32;97192.56;4433209;32;20147;-80